Latest Weather Observations for Hay Airport

IDN60801

Issued at 8:32 pm EDT Friday 9 December 2016 (issued every 30 minutes, with the page automatically refreshed every 10 minutes)

About weather observations | Map of weather stations | Latest weather observations for NSW | Other Formats
Station Details ID: 075019 Name: HAY AIRPORT AWS Lat: -34.54 Lon: 144.83 Height: 92.0 m
Data from the previous 72 hours. | See also: Recent months at Hay Airport
Date/Time
EDT
Temp
°C
App
Temp
°C
Dew
Point
°C
Rel
Hum
%
Delta-T
°C
Wind Press
QNH
hPa
Press
MSL
hPa
Rain since
9am
mm
Dir  Spd
km/h
Gust
km/h
Spd
kts
Gust
kts
09/08:30pm 18.4 13.9 1.9 33 7.5 S 15 19 8 10 1018.8 1018.4 0.0
09/08:00pm 20.2 14.9 1.6 29 8.5 S 19 24 10 13 1018.5 1018.1 0.0
09/07:30pm 21.3 15.8 1.6 27 9.1 SSW 20 28 11 15 1018.2 1017.8 0.0
09/07:00pm 22.2 16.7 1.8 26 9.5 SSW 20 30 11 16 1017.7 1017.3 0.0
09/06:30pm 22.6 17.0 1.0 24 10.0 SSW 20 28 11 15 1017.2 1016.8 0.0
09/06:00pm 22.9 17.4 1.9 25 9.9 SSW 20 33 11 18 1017.0 1016.6 0.0
09/05:30pm 22.8 17.3 1.8 25 9.9 S 20 33 11 18 1017.0 1016.6 0.0
09/05:00pm 22.8 16.9 1.8 25 9.9 SSW 22 35 12 19 1017.0 1016.6 0.0
09/04:39pm 22.5 15.3 0.9 24 10.0 SSW 28 46 15 25 1017.1 1016.7 0.0
09/04:30pm 22.6 16.4 2.1 26 9.7 S 24 37 13 20 1017.0 1016.6 0.0
09/04:00pm 22.6 16.3 1.6 25 9.8 SSW 24 35 13 19 1017.2 1016.8 0.0
09/03:30pm 22.2 16.3 1.8 26 9.5 SSW 22 35 12 19 1017.5 1017.1 0.0
09/03:00pm 21.7 14.6 1.4 26 9.4 SW 28 39 15 21 1017.4 1017.0 0.0
09/02:30pm 22.3 16.1 2.4 27 9.4 SSW 24 39 13 21 1017.7 1017.3 0.0
09/02:00pm 21.1 14.9 1.9 28 8.9 SW 24 35 13 19 1017.9 1017.5 0.0
09/01:30pm 20.9 14.7 2.2 29 8.7 SW 24 37 13 20 1018.1 1017.7 0.0
09/01:00pm 19.7 12.4 2.6 32 8.0 SW 30 43 16 23 1018.1 1017.7 0.0
09/12:30pm 18.8 11.8 2.2 33 7.6 SW 28 44 15 24 1018.2 1017.8 0.0
09/12:00pm 19.2 12.8 3.4 35 7.4 SSW 26 41 14 22 1018.4 1018.0 0.0
09/11:37am 18.5 11.4 3.6 37 7.0 SW 30 50 16 27 1018.3 1017.9 0.0
09/11:30am 17.6 10.8 3.1 38 6.7 SW 28 37 15 20 1018.4 1018.0 0.0
09/11:00am 18.4 11.7 3.8 38 6.9 SSW 28 44 15 24 1018.2 1017.8 0.0
09/10:30am 17.0 10.4 4.0 42 6.1 SW 28 43 15 23 1018.1 1017.7 0.0
09/10:00am 15.7 8.8 4.7 48 5.2 SW 30 39 16 21 1017.7 1017.3 0.0
09/09:30am 14.4 7.5 4.4 51 4.6 SSW 30 39 16 21 1017.8 1017.4 0.0
09/09:00am 15.4 9.3 6.4 55 4.4 SW 28 37 15 20 1017.5 1017.1 1.2
09/08:30am 13.9 7.4 6.3 60 3.7 SW 30 41 16 22 1017.1 1016.7 1.2
09/08:00am 12.7 7.0 6.5 66 3.0 SW 26 33 14 18 1016.8 1016.4 1.2
09/07:30am 11.4 6.0 6.3 71 2.4 WSW 24 30 13 16 1016.2 1015.8 1.2
09/07:00am 10.3 5.9 6.5 77 1.8 WSW 19 24 10 13 1015.6 1015.2 1.2
09/06:30am 8.9 5.1 6.0 82 1.3 WSW 15 20 8 11 1014.8 1014.4 1.2
09/06:00am 8.7 4.5 5.6 81 1.4 WSW 17 20 9 11 1014.1 1013.7 1.2
09/05:30am 9.5 4.8 6.0 79 1.6 WSW 20 26 11 14 1013.7 1013.3 1.2
09/05:00am 9.5 5.3 5.9 78 1.7 WSW 17 26 9 14 1013.1 1012.7 1.2
09/04:30am 9.9 5.4 5.9 76 1.8 WSW 19 24 10 13 1012.8 1012.4 1.2
09/04:00am 10.3 5.8 5.9 74 2.0 WSW 19 24 10 13 1012.4 1012.0 1.2
09/03:30am 10.9 6.2 6.1 72 2.2 WSW 20 26 11 14 1011.9 1011.5 1.2
09/03:00am 11.7 5.9 6.2 69 2.6 WSW 26 35 14 19 1011.9 1011.5 1.2
09/02:30am 11.9 5.9 5.5 65 3.0 WSW 26 35 14 19 1011.8 1011.4 1.2
09/02:00am 12.8 5.6 5.2 60 3.5 WSW 32 41 17 22 1011.6 1011.2 1.2
09/01:30am 13.3 6.7 6.2 62 3.4 WSW 30 39 16 21 1011.4 1011.0 1.2
09/01:00am 14.0 7.4 6.1 59 3.8 SW 30 41 16 22 1011.3 1010.9 1.2
09/12:30am 14.7 7.7 5.8 55 4.3 SW 32 39 17 21 1010.9 1010.6 1.2
09/12:00am 15.5 8.3 5.1 50 4.9 SW 32 43 17 23 1010.7 1010.4 1.2
 
Date/Time
EDT
Temp
°C
App
Temp
°C
Dew
Point
°C
Rel
Hum
%
Delta-T
°C
Wind Press
QNH
hPa
Press
MSL
hPa
Rain since
9am
mm
Dir  Spd
km/h
Gust
km/h
Spd
kts
Gust
kts
08/11:30pm 16.0 8.7 4.7 47 5.3 WSW 32 41 17 22 1010.1 1009.7 1.2
08/11:00pm 16.1 9.6 4.8 47 5.4 WSW 28 35 15 19 1009.9 1009.5 1.2
08/10:30pm 16.3 10.1 4.4 45 5.6 WSW 26 33 14 18 1009.5 1009.1 1.2
08/10:00pm 17.1 10.9 4.1 42 6.1 WSW 26 33 14 18 1009.0 1008.6 1.2
08/09:30pm 18.5 11.5 3.9 38 6.9 WSW 30 43 16 23 1008.4 1008.0 1.2
08/09:00pm 18.3 11.7 4.1 39 6.8 WSW 28 39 15 21 1007.8 1007.4 1.2
08/08:30pm 19.3 11.8 3.5 35 7.5 W 32 43 17 23 1007.1 1006.7 1.2
08/08:00pm 20.8 11.4 4.4 34 8.0 WSW 43 56 23 30 1006.3 1005.9 1.2
08/07:34pm 21.7 13.0 1.9 27 9.2 WSW 37 56 20 30 1005.4 1005.0 1.2
08/07:30pm 21.8 13.4 3.5 30 8.8 WSW 37 48 20 26 1005.3 1004.9 1.2
08/07:14pm 21.8 12.1 3.0 29 9.0 WSW 43 61 23 33 1005.0 1004.6 1.2
08/07:00pm 22.2 12.7 3.8 30 9.0 WSW 43 57 23 31 1004.8 1004.4 1.2
08/06:36pm 23.1 13.5 3.6 28 9.5 WSW 43 61 23 33 1004.3 1003.9 1.2
08/06:30pm 23.1 13.4 4.1 29 9.3 WSW 44 61 24 33 1004.2 1003.8 1.2
08/06:16pm 23.9 14.3 4.3 28 9.7 WSW 44 63 24 34 1003.9 1003.5 1.2
08/06:00pm 24.1 13.9 3.4 26 10.2 WSW 46 57 25 31 1003.7 1003.3 1.2
08/05:30pm 24.4 15.0 4.2 27 10.0 WSW 43 63 23 34 1003.3 1002.9 1.2
08/05:12pm 24.1 14.6 5.0 29 9.6 W 44 63 24 34 1003.2 1002.8 1.2
08/05:00pm 24.2 15.2 6.5 32 9.2 WSW 43 57 23 31 1003.1 1002.7 1.2
08/04:55pm 24.0 16.4 7.6 35 8.7 W 37 61 20 33 1003.1 1002.7 1.2
08/04:50pm 23.7 17.9 7.8 36 8.4 W 28 61 15 33 1003.1 1002.7 1.2
08/04:30pm 20.7 17.8 14.1 66 3.8 WNW 22 33 12 18 1003.3 1002.9 1.2
08/04:00pm 18.9 17.0 15.8 82 1.9 WNW 20 26 11 14 1003.3 1002.9 1.2
08/03:30pm 16.9 14.8 14.7 87 1.3 W 19 26 10 14 1003.6 1003.2 1.2
08/03:00pm 15.0 12.5 13.4 90 0.9 W 19 26 10 14 1004.2 1003.8 1.2
08/02:30pm 13.9 10.9 12.6 92 0.7 WSW 20 30 11 16 1004.5 1004.1 1.2
08/02:00pm 13.3 8.3 12.2 93 0.6 WSW 30 43 16 23 1004.8 1004.4 1.0
08/01:30pm 14.0 8.3 13.1 94 0.5 WSW 35 46 19 25 1004.8 1004.4 1.0
08/01:00pm 14.6 8.7 13.6 94 0.6 SW 37 61 20 33 1004.1 1003.7 0.8
08/12:57pm 14.7 7.7 13.6 93 0.6 WSW 43 61 23 33 1003.2 1002.8 0.6
08/12:30pm 19.5 14.5 16.2 81 2.0 WNW 37 54 20 29 1003.0 1002.6 0.2
08/12:24pm 23.0 18.2 16.5 67 4.0 NW 37 56 20 30 1002.4 1002.0 0.0
08/12:00pm 26.1 22.5 15.2 51 6.6 WNW 28 43 15 23 1002.1 1001.7 0.0
08/11:42am 26.5 22.4 13.9 45 7.5 NW 28 50 15 27 1002.0 1001.6 0.0
08/11:30am 26.8 23.2 14.2 46 7.5 NNW 26 35 14 19 1001.8 1001.4 0.0
08/11:00am 25.1 21.4 14.9 53 6.2 NNW 28 35 15 19 1002.0 1001.6 0.0
08/10:30am 25.0 19.3 12.9 47 7.0 NW 35 50 19 27 1002.1 1001.7 0.0
08/10:00am 28.7 21.9 10.8 33 10.3 NNW 37 52 20 28 1002.2 1001.8 0.0
08/09:30am 28.4 22.8 11.5 35 9.8 NNW 32 46 17 25 1002.7 1002.3 0.0
08/09:00am 27.1 21.5 11.6 38 8.9 NNW 32 44 17 24 1003.1 1002.7 0.0
08/08:30am 28.1 23.3 11.6 36 9.5 NNW 28 39 15 21 1003.3 1002.9 0.0
08/08:00am 24.4 20.2 9.9 40 8.0 N 22 30 12 16 1003.5 1003.1 0.0
08/07:30am 23.0 18.8 9.8 43 7.2 N 22 30 12 16 1003.5 1003.1 0.0
08/07:00am 21.5 16.4 9.1 45 6.7 N 26 33 14 18 1003.5 1003.1 0.0
08/06:30am 20.6 16.6 8.9 47 6.2 N 20 28 11 15 1003.9 1003.5 0.0
08/06:00am 20.3 15.9 8.9 48 6.1 N 22 28 12 15 1003.8 1003.4 0.0
08/05:30am 20.8 16.8 9.1 47 6.2 N 20 28 11 15 1004.0 1003.6 0.0
08/05:00am 21.6 16.8 8.8 44 6.8 NNE 24 28 13 15 1003.9 1003.5 0.0
08/04:30am 21.4 17.2 9.6 47 6.4 N 22 32 12 17 1004.2 1003.8 0.0
08/04:00am 21.4 17.1 9.3 46 6.5 N 22 30 12 16 1004.5 1004.1 0.0
08/03:30am 21.8 17.5 9.3 45 6.7 N 22 28 12 15 1004.7 1004.3 0.0
08/03:00am 21.9 17.9 9.1 44 6.9 N 20 28 11 15 1004.6 1004.2 0.0
08/02:30am 23.4 18.9 8.7 39 7.9 N 22 32 12 17 1004.9 1004.5 0.0
08/02:00am 23.2 18.7 8.5 39 7.9 N 22 32 12 17 1005.2 1004.8 0.0
08/01:30am 22.9 18.4 8.6 40 7.6 N 22 28 12 15 1005.9 1005.5 0.0
08/01:00am 22.2 17.8 9.0 43 7.1 N 22 28 12 15 1006.9 1006.5 0.0
08/12:30am 22.4 18.4 8.9 42 7.2 N 20 30 11 16 1007.3 1006.9 0.0
08/12:00am 22.8 19.1 8.1 39 7.8 N 17 20 9 11 1007.9 1007.5 0.0
 
Date/Time
EDT
Temp
°C
App
Temp
°C
Dew
Point
°C
Rel
Hum
%
Delta-T
°C
Wind Press
QNH
hPa
Press
MSL
hPa
Rain since
9am
mm
Dir  Spd
km/h
Gust
km/h
Spd
kts
Gust
kts
07/11:30pm 20.7 17.9 8.7 46 6.3 NE 13 17 7 9 1008.2 1007.8 0.0
07/11:00pm 20.1 17.5 9.4 50 5.7 NE 13 15 7 8 1008.7 1008.3 0.0
07/10:30pm 20.2 18.5 9.7 51 5.6 NE 9 11 5 6 1008.6 1008.2 0.0
07/10:00pm 20.1 18.4 8.4 47 6.1 ENE 7 11 4 6 1008.8 1008.4 0.0
07/09:30pm 20.9 19.9 7.2 41 7.0 E 2 7 1 4 1009.0 1008.6 0.0
07/09:00pm 23.5 22.7 6.7 34 8.7 CALM 0 0 0 0 1009.0 1008.6 0.0
07/08:30pm 24.8 24.0 6.5 31 9.5 CALM 0 0 0 0 1009.3 1008.9 0.0
07/08:00pm 29.2 28.4 6.6 24 12.1 CALM 0 0 0 0 1009.4 1009.0 0.0
07/07:30pm 29.9 28.3 6.5 23 12.5 W 4 9 2 5 1009.5 1009.1 0.0
07/07:00pm 30.4 28.4 6.3 22 12.9 WSW 6 15 3 8 1009.6 1009.2 0.0
07/06:30pm 30.3 26.6 6.2 22 12.9 WSW 15 22 8 12 1009.8 1009.4 0.0
07/06:00pm 30.9 27.1 6.0 21 13.3 NW 15 26 8 14 1010.0 1009.6 0.0
07/05:30pm 31.0 27.5 5.4 20 13.5 W 13 24 7 13 1010.2 1009.9 0.0
07/05:00pm 31.1 27.2 5.5 20 13.6 WSW 15 39 8 21 1010.3 1010.0 0.0
07/04:30pm 31.0 26.0 4.7 19 13.7 W 20 30 11 16 1011.0 1010.7 0.0
07/04:00pm 31.2 25.9 4.9 19 13.8 W 22 35 12 19 1011.5 1011.1 0.0
07/03:30pm 30.5 24.9 3.5 18 13.8 W 22 35 12 19 1011.9 1011.5 0.0
07/03:00pm 30.9 25.7 3.8 18 13.9 W 20 33 11 18 1012.4 1012.0 0.0
07/02:30pm 30.1 26.2 3.2 18 13.6 W 13 26 7 14 1012.7 1012.3 0.0
07/02:00pm 30.5 25.7 2.7 17 14.0 WSW 17 24 9 13 1013.1 1012.7 0.0
07/01:30pm 28.8 24.3 2.1 18 13.2 WNW 15 24 8 13 1013.5 1013.1 0.0
07/01:00pm 28.9 25.4 1.4 17 13.4 NNW 9 19 5 10 1014.0 1013.6 0.0
07/12:30pm 27.7 24.8 1.2 18 12.8 WNW 6 19 3 10 1014.4 1014.0 0.0
07/12:00pm 27.3 23.7 3.1 21 12.0 N 11 22 6 12 1014.8 1014.4 0.0
07/11:30am 27.0 24.9 4.1 23 11.6 N 4 15 2 8 1015.2 1014.8 0.0
07/11:00am 25.9 22.8 3.8 24 11.0 N 9 15 5 8 1015.6 1015.2 0.0
07/10:30am 24.7 22.4 2.8 24 10.6 N 4 13 2 7 1015.9 1015.5 0.0
07/10:00am 24.3 21.6 3.6 26 10.2 SSW 7 15 4 8 1016.0 1015.6 0.0
07/09:30am 24.0 22.0 6.3 32 9.1 SSE 6 11 3 6 1016.0 1015.6 0.0
07/09:00am 21.8 20.9 7.6 40 7.4 SE 2 7 1 4 1015.8 1015.4 -
07/08:30am 18.8 - 8.7 52 5.3 - - - - - 1015.6 1015.2 -

Other Formats:

Comma delimited format used in spreadsheet applications
http://www.bom.gov.au/fwo/IDN60801/IDN60801.94702.axf

JavaScript Object Notation format (JSON) in row-major order
http://www.bom.gov.au/fwo/IDN60801/IDN60801.94702.json